sensor_id;sensor_type;location;lat;lon;timestamp;P1;durP1;ratioP1;P2;durP2;ratioP2
16171;SDS011;8192;53.596;10.166;2023-04-15T00:00:22;1.10;;;0.50;;
16171;SDS011;8192;53.596;10.166;2023-04-15T00:02:50;0.10;;;0.10;;
16171;SDS011;8192;53.596;10.166;2023-04-15T00:05:17;0.00;;;0.00;;
16171;SDS011;8192;53.596;10.166;2023-04-15T00:07:44;0.47;;;0.37;;
16171;SDS011;8192;53.596;10.166;2023-04-15T00:10:12;1.30;;;1.00;;
16171;SDS011;8192;53.596;10.166;2023-04-15T00:12:39;0.20;;;0.17;;
16171;SDS011;8192;53.596;10.166;2023-04-15T00:15:07;0.00;;;0.00;;
16171;SDS011;8192;53.596;10.166;2023-04-15T00:17:36;1.60;;;0.77;;
16171;SDS011;8192;53.596;10.166;2023-04-15T00:20:04;2.70;;;1.17;;
16171;SDS011;8192;53.596;10.166;2023-04-15T00:22:32;0.23;;;0.23;;
16171;SDS011;8192;53.596;10.166;2023-04-15T00:24:59;0.00;;;0.00;;
16171;SDS011;8192;53.596;10.166;2023-04-15T00:27:27;0.00;;;0.00;;
16171;SDS011;8192;53.596;10.166;2023-04-15T00:29:54;0.43;;;0.43;;
16171;SDS011;8192;53.596;10.166;2023-04-15T00:32:22;0.63;;;0.53;;
16171;SDS011;8192;53.596;10.166;2023-04-15T00:34:49;1.07;;;0.67;;
16171;SDS011;8192;53.596;10.166;2023-04-15T00:37:16;0.00;;;0.00;;
16171;SDS011;8192;53.596;10.166;2023-04-15T00:39:43;0.10;;;0.10;;
16171;SDS011;8192;53.596;10.166;2023-04-15T00:42:10;0.20;;;0.20;;
16171;SDS011;8192;53.596;10.166;2023-04-15T00:44:40;0.00;;;0.00;;
16171;SDS011;8192;53.596;10.166;2023-04-15T00:47:06;0.00;;;0.00;;
16171;SDS011;8192;53.596;10.166;2023-04-15T00:49:34;3.17;;;0.43;;
16171;SDS011;8192;53.596;10.166;2023-04-15T00:52:01;0.00;;;0.00;;
16171;SDS011;8192;53.596;10.166;2023-04-15T00:54:28;0.00;;;0.00;;
16171;SDS011;8192;53.596;10.166;2023-04-15T00:56:55;0.00;;;0.00;;
16171;SDS011;8192;53.596;10.166;2023-04-15T00:59:22;0.13;;;0.13;;
16171;SDS011;8192;53.596;10.166;2023-04-15T01:01:51;0.00;;;0.00;;
16171;SDS011;8192;53.596;10.166;2023-04-15T01:04:19;0.10;;;0.00;;
16171;SDS011;8192;53.596;10.166;2023-04-15T01:06:46;1.03;;;0.93;;
16171;SDS011;8192;53.596;10.166;2023-04-15T01:15:57;1.00;;;0.70;;
16171;SDS011;8192;53.596;10.166;2023-04-15T01:18:25;0.33;;;0.20;;
16171;SDS011;8192;53.596;10.166;2023-04-15T01:20:52;0.43;;;0.43;;
16171;SDS011;8192;53.596;10.166;2023-04-15T01:23:20;0.00;;;0.00;;
16171;SDS011;8192;53.596;10.166;2023-04-15T01:25:49;0.20;;;0.20;;
16171;SDS011;8192;53.596;10.166;2023-04-15T01:28:18;0.50;;;0.43;;
16171;SDS011;8192;53.596;10.166;2023-04-15T01:30:46;0.10;;;0.10;;
16171;SDS011;8192;53.596;10.166;2023-04-15T01:33:13;0.17;;;0.17;;
16171;SDS011;8192;53.596;10.166;2023-04-15T01:35:41;0.00;;;0.00;;
16171;SDS011;8192;53.596;10.166;2023-04-15T01:38:11;0.20;;;0.20;;
16171;SDS011;8192;53.596;10.166;2023-04-15T01:40:38;0.00;;;0.00;;
16171;SDS011;8192;53.596;10.166;2023-04-15T01:43:07;0.00;;;0.00;;
16171;SDS011;8192;53.596;10.166;2023-04-15T01:45:34;0.00;;;0.00;;
16171;SDS011;8192;53.596;10.166;2023-04-15T01:48:01;0.00;;;0.00;;
16171;SDS011;8192;53.596;10.166;2023-04-15T01:53:50;0.00;;;0.00;;
16171;SDS011;8192;53.596;10.166;2023-04-15T01:56:21;0.00;;;0.00;;
16171;SDS011;8192;53.596;10.166;2023-04-15T01:58:51;0.00;;;0.00;;
16171;SDS011;8192;53.596;10.166;2023-04-15T02:01:18;0.00;;;0.00;;
16171;SDS011;8192;53.596;10.166;2023-04-15T02:03:46;0.00;;;0.00;;
16171;SDS011;8192;53.596;10.166;2023-04-15T02:06:13;0.00;;;0.00;;
16171;SDS011;8192;53.596;10.166;2023-04-15T02:08:40;0.00;;;0.00;;
16171;SDS011;8192;53.596;10.166;2023-04-15T02:11:07;0.00;;;0.00;;
16171;SDS011;8192;53.596;10.166;2023-04-15T02:13:34;0.00;;;0.00;;
16171;SDS011;8192;53.596;10.166;2023-04-15T02:16:04;0.00;;;0.00;;
16171;SDS011;8192;53.596;10.166;2023-04-15T02:18:42;0.00;;;0.00;;
16171;SDS011;8192;53.596;10.166;2023-04-15T02:21:09;0.00;;;0.00;;
16171;SDS011;8192;53.596;10.166;2023-04-15T02:23:36;0.00;;;0.00;;
16171;SDS011;8192;53.596;10.166;2023-04-15T02:26:03;0.00;;;0.00;;
16171;SDS011;8192;53.596;10.166;2023-04-15T02:28:30;0.00;;;0.00;;
16171;SDS011;8192;53.596;10.166;2023-04-15T02:30:57;0.00;;;0.00;;
16171;SDS011;8192;53.596;10.166;2023-04-15T02:33:27;0.00;;;0.00;;
16171;SDS011;8192;53.596;10.166;2023-04-15T02:35:55;0.00;;;0.00;;
16171;SDS011;8192;53.596;10.166;2023-04-15T02:38:21;0.00;;;0.00;;
16171;SDS011;8192;53.596;10.166;2023-04-15T02:40:51;0.00;;;0.00;;
16171;SDS011;8192;53.596;10.166;2023-04-15T02:43:18;0.00;;;0.00;;
16171;SDS011;8192;53.596;10.166;2023-04-15T02:45:46;0.00;;;0.00;;
16171;SDS011;8192;53.596;10.166;2023-04-15T02:48:13;0.00;;;0.00;;
16171;SDS011;8192;53.596;10.166;2023-04-15T02:50:44;0.00;;;0.00;;
16171;SDS011;8192;53.596;10.166;2023-04-15T02:53:11;0.00;;;0.00;;
16171;SDS011;8192;53.596;10.166;2023-04-15T02:55:39;0.00;;;0.00;;
16171;SDS011;8192;53.596;10.166;2023-04-15T02:58:06;0.00;;;0.00;;
16171;SDS011;8192;53.596;10.166;2023-04-15T03:00:33;0.00;;;0.00;;
16171;SDS011;8192;53.596;10.166;2023-04-15T03:03:01;0.00;;;0.00;;
16171;SDS011;8192;53.596;10.166;2023-04-15T03:05:30;0.00;;;0.00;;
16171;SDS011;8192;53.596;10.166;2023-04-15T03:07:58;0.00;;;0.00;;
16171;SDS011;8192;53.596;10.166;2023-04-15T03:10:27;0.00;;;0.00;;
16171;SDS011;8192;53.596;10.166;2023-04-15T03:12:54;0.00;;;0.00;;
16171;SDS011;8192;53.596;10.166;2023-04-15T03:15:20;0.00;;;0.00;;
16171;SDS011;8192;53.596;10.166;2023-04-15T03:17:47;0.00;;;0.00;;
16171;SDS011;8192;53.596;10.166;2023-04-15T03:20:15;0.00;;;0.00;;
16171;SDS011;8192;53.596;10.166;2023-04-15T03:22:42;0.00;;;0.00;;
16171;SDS011;8192;53.596;10.166;2023-04-15T03:25:10;0.00;;;0.00;;
16171;SDS011;8192;53.596;10.166;2023-04-15T03:27:37;0.00;;;0.00;;
16171;SDS011;8192;53.596;10.166;2023-04-15T03:30:04;0.00;;;0.00;;
16171;SDS011;8192;53.596;10.166;2023-04-15T03:32:33;0.00;;;0.00;;
16171;SDS011;8192;53.596;10.166;2023-04-15T03:35:00;0.00;;;0.00;;
16171;SDS011;8192;53.596;10.166;2023-04-15T03:37:26;0.00;;;0.00;;
16171;SDS011;8192;53.596;10.166;2023-04-15T03:39:53;0.00;;;0.00;;
16171;SDS011;8192;53.596;10.166;2023-04-15T03:42:22;0.00;;;0.00;;
16171;SDS011;8192;53.596;10.166;2023-04-15T03:44:48;0.00;;;0.00;;
16171;SDS011;8192;53.596;10.166;2023-04-15T03:47:16;0.00;;;0.00;;
16171;SDS011;8192;53.596;10.166;2023-04-15T03:49:43;0.00;;;0.00;;
16171;SDS011;8192;53.596;10.166;2023-04-15T03:52:10;0.00;;;0.00;;
16171;SDS011;8192;53.596;10.166;2023-04-15T03:54:37;0.00;;;0.00;;
16171;SDS011;8192;53.596;10.166;2023-04-15T03:57:04;0.00;;;0.00;;
16171;SDS011;8192;53.596;10.166;2023-04-15T04:02:25;0.00;;;0.00;;
16171;SDS011;8192;53.596;10.166;2023-04-15T04:04:52;0.00;;;0.00;;
16171;SDS011;8192;53.596;10.166;2023-04-15T04:07:19;0.00;;;0.00;;
16171;SDS011;8192;53.596;10.166;2023-04-15T04:09:49;0.00;;;0.00;;
16171;SDS011;8192;53.596;10.166;2023-04-15T04:12:16;0.00;;;0.00;;
16171;SDS011;8192;53.596;10.166;2023-04-15T04:14:43;0.00;;;0.00;;
16171;SDS011;8192;53.596;10.166;2023-04-15T04:17:11;0.00;;;0.00;;
16171;SDS011;8192;53.596;10.166;2023-04-15T04:19:38;0.00;;;0.00;;
16171;SDS011;8192;53.596;10.166;2023-04-15T04:22:05;0.00;;;0.00;;
16171;SDS011;8192;53.596;10.166;2023-04-15T04:24:32;0.00;;;0.00;;
16171;SDS011;8192;53.596;10.166;2023-04-15T04:26:59;0.00;;;0.00;;
16171;SDS011;8192;53.596;10.166;2023-04-15T04:29:26;0.00;;;0.00;;
16171;SDS011;8192;53.596;10.166;2023-04-15T04:31:53;0.00;;;0.00;;
16171;SDS011;8192;53.596;10.166;2023-04-15T04:37:46;0.00;;;0.00;;
16171;SDS011;8192;53.596;10.166;2023-04-15T04:40:15;0.00;;;0.00;;
16171;SDS011;8192;53.596;10.166;2023-04-15T04:42:42;0.00;;;0.00;;
16171;SDS011;8192;53.596;10.166;2023-04-15T04:45:09;0.00;;;0.00;;
16171;SDS011;8192;53.596;10.166;2023-04-15T04:47:36;0.00;;;0.00;;
16171;SDS011;8192;53.596;10.166;2023-04-15T04:50:03;0.00;;;0.00;;
16171;SDS011;8192;53.596;10.166;2023-04-15T04:52:31;0.00;;;0.00;;
16171;SDS011;8192;53.596;10.166;2023-04-15T04:55:01;0.00;;;0.00;;
16171;SDS011;8192;53.596;10.166;2023-04-15T04:57:28;0.00;;;0.00;;
16171;SDS011;8192;53.596;10.166;2023-04-15T04:59:54;0.00;;;0.00;;
16171;SDS011;8192;53.596;10.166;2023-04-15T05:02:28;0.00;;;0.00;;
16171;SDS011;8192;53.596;10.166;2023-04-15T05:04:56;0.00;;;0.00;;
16171;SDS011;8192;53.596;10.166;2023-04-15T05:07:23;0.00;;;0.00;;
16171;SDS011;8192;53.596;10.166;2023-04-15T05:09:50;0.00;;;0.00;;
16171;SDS011;8192;53.596;10.166;2023-04-15T05:12:18;0.00;;;0.00;;
16171;SDS011;8192;53.596;10.166;2023-04-15T05:14:46;0.00;;;0.00;;
16171;SDS011;8192;53.596;10.166;2023-04-15T05:17:29;0.00;;;0.00;;
16171;SDS011;8192;53.596;10.166;2023-04-15T05:19:57;0.00;;;0.00;;
16171;SDS011;8192;53.596;10.166;2023-04-15T05:22:24;0.00;;;0.00;;
16171;SDS011;8192;53.596;10.166;2023-04-15T05:24:51;0.00;;;0.00;;
16171;SDS011;8192;53.596;10.166;2023-04-15T05:27:23;0.00;;;0.00;;
16171;SDS011;8192;53.596;10.166;2023-04-15T05:29:52;0.00;;;0.00;;
16171;SDS011;8192;53.596;10.166;2023-04-15T05:32:20;0.00;;;0.00;;
16171;SDS011;8192;53.596;10.166;2023-04-15T05:34:47;0.00;;;0.00;;
16171;SDS011;8192;53.596;10.166;2023-04-15T05:37:15;0.00;;;0.00;;
16171;SDS011;8192;53.596;10.166;2023-04-15T05:39:45;0.00;;;0.00;;
16171;SDS011;8192;53.596;10.166;2023-04-15T05:42:12;0.00;;;0.00;;
16171;SDS011;8192;53.596;10.166;2023-04-15T05:48:15;0.00;;;0.00;;
16171;SDS011;8192;53.596;10.166;2023-04-15T05:50:42;0.00;;;0.00;;
16171;SDS011;8192;53.596;10.166;2023-04-15T05:53:11;0.00;;;0.00;;
16171;SDS011;8192;53.596;10.166;2023-04-15T05:59:00;0.00;;;0.00;;
16171;SDS011;8192;53.596;10.166;2023-04-15T06:01:28;0.00;;;0.00;;
16171;SDS011;8192;53.596;10.166;2023-04-15T06:03:56;0.00;;;0.00;;
16171;SDS011;8192;53.596;10.166;2023-04-15T06:09:45;0.00;;;0.00;;
16171;SDS011;8192;53.596;10.166;2023-04-15T06:12:14;0.00;;;0.00;;
16171;SDS011;8192;53.596;10.166;2023-04-15T06:14:41;0.00;;;0.00;;
16171;SDS011;8192;53.596;10.166;2023-04-15T06:17:09;0.00;;;0.00;;
16171;SDS011;8192;53.596;10.166;2023-04-15T06:19:40;0.00;;;0.00;;
16171;SDS011;8192;53.596;10.166;2023-04-15T06:22:07;0.00;;;0.00;;
16171;SDS011;8192;53.596;10.166;2023-04-15T06:24:35;0.00;;;0.00;;
16171;SDS011;8192;53.596;10.166;2023-04-15T06:27:02;0.00;;;0.00;;
16171;SDS011;8192;53.596;10.166;2023-04-15T06:29:29;0.00;;;0.00;;
16171;SDS011;8192;53.596;10.166;2023-04-15T06:32:00;0.00;;;0.00;;
16171;SDS011;8192;53.596;10.166;2023-04-15T06:43:37;0.00;;;0.00;;
16171;SDS011;8192;53.596;10.166;2023-04-15T06:46:12;0.00;;;0.00;;
16171;SDS011;8192;53.596;10.166;2023-04-15T06:48:55;0.00;;;0.00;;
16171;SDS011;8192;53.596;10.166;2023-04-15T06:51:22;0.00;;;0.00;;
16171;SDS011;8192;53.596;10.166;2023-04-15T06:53:50;0.00;;;0.00;;
16171;SDS011;8192;53.596;10.166;2023-04-15T06:58:51;0.00;;;0.00;;
16171;SDS011;8192;53.596;10.166;2023-04-15T07:01:20;0.00;;;0.00;;
16171;SDS011;8192;53.596;10.166;2023-04-15T07:03:48;0.00;;;0.00;;
16171;SDS011;8192;53.596;10.166;2023-04-15T07:06:16;0.00;;;0.00;;
16171;SDS011;8192;53.596;10.166;2023-04-15T07:12:08;0.00;;;0.00;;
16171;SDS011;8192;53.596;10.166;2023-04-15T07:17:57;0.00;;;0.00;;
16171;SDS011;8192;53.596;10.166;2023-04-15T07:20:38;0.00;;;0.00;;
16171;SDS011;8192;53.596;10.166;2023-04-15T07:23:05;0.00;;;0.00;;
16171;SDS011;8192;53.596;10.166;2023-04-15T07:28:42;0.00;;;0.00;;
16171;SDS011;8192;53.596;10.166;2023-04-15T07:31:10;0.00;;;0.00;;
16171;SDS011;8192;53.596;10.166;2023-04-15T07:33:37;0.00;;;0.00;;
16171;SDS011;8192;53.596;10.166;2023-04-15T07:36:05;0.00;;;0.00;;
16171;SDS011;8192;53.596;10.166;2023-04-15T07:41:41;0.00;;;0.00;;
16171;SDS011;8192;53.596;10.166;2023-04-15T07:47:39;0.00;;;0.00;;
16171;SDS011;8192;53.596;10.166;2023-04-15T07:50:08;0.00;;;0.00;;
16171;SDS011;8192;53.596;10.166;2023-04-15T07:52:36;0.00;;;0.00;;
16171;SDS011;8192;53.596;10.166;2023-04-15T07:55:04;0.00;;;0.00;;
16171;SDS011;8192;53.596;10.166;2023-04-15T07:57:33;0.00;;;0.00;;
16171;SDS011;8192;53.596;10.166;2023-04-15T08:12:49;0.00;;;0.00;;
16171;SDS011;8192;53.596;10.166;2023-04-15T08:15:26;0.00;;;0.00;;
16171;SDS011;8192;53.596;10.166;2023-04-15T08:17:59;0.00;;;0.00;;
16171;SDS011;8192;53.596;10.166;2023-04-15T08:23:51;0.00;;;0.00;;
16171;SDS011;8192;53.596;10.166;2023-04-15T08:26:19;0.00;;;0.00;;
16171;SDS011;8192;53.596;10.166;2023-04-15T08:35:02;0.00;;;0.00;;
16171;SDS011;8192;53.596;10.166;2023-04-15T08:40:56;0.00;;;0.00;;
16171;SDS011;8192;53.596;10.166;2023-04-15T08:43:26;0.00;;;0.00;;
16171;SDS011;8192;53.596;10.166;2023-04-15T08:45:54;0.00;;;0.00;;
16171;SDS011;8192;53.596;10.166;2023-04-15T08:48:26;0.00;;;0.00;;
16171;SDS011;8192;53.596;10.166;2023-04-15T08:51:02;0.00;;;0.00;;
16171;SDS011;8192;53.596;10.166;2023-04-15T08:53:32;0.00;;;0.00;;
16171;SDS011;8192;53.596;10.166;2023-04-15T08:59:27;0.00;;;0.00;;
16171;SDS011;8192;53.596;10.166;2023-04-15T09:01:57;0.00;;;0.00;;
16171;SDS011;8192;53.596;10.166;2023-04-15T09:04:26;0.00;;;0.00;;
16171;SDS011;8192;53.596;10.166;2023-04-15T09:06:57;0.00;;;0.00;;
16171;SDS011;8192;53.596;10.166;2023-04-15T09:09:27;0.00;;;0.00;;
16171;SDS011;8192;53.596;10.166;2023-04-15T09:15:20;0.00;;;0.00;;
16171;SDS011;8192;53.596;10.166;2023-04-15T09:17:49;0.00;;;0.00;;
16171;SDS011;8192;53.596;10.166;2023-04-15T09:20:17;0.00;;;0.00;;
16171;SDS011;8192;53.596;10.166;2023-04-15T09:22:58;0.00;;;0.00;;
16171;SDS011;8192;53.596;10.166;2023-04-15T09:25:26;0.00;;;0.00;;
16171;SDS011;8192;53.596;10.166;2023-04-15T09:27:54;0.00;;;0.00;;
16171;SDS011;8192;53.596;10.166;2023-04-15T09:30:24;0.00;;;0.00;;
16171;SDS011;8192;53.596;10.166;2023-04-15T09:32:53;0.00;;;0.00;;
16171;SDS011;8192;53.596;10.166;2023-04-15T09:35:21;0.00;;;0.00;;
16171;SDS011;8192;53.596;10.166;2023-04-15T09:37:49;0.00;;;0.00;;
16171;SDS011;8192;53.596;10.166;2023-04-15T09:40:29;0.00;;;0.00;;
16171;SDS011;8192;53.596;10.166;2023-04-15T09:42:57;0.00;;;0.00;;
16171;SDS011;8192;53.596;10.166;2023-04-15T09:45:27;0.00;;;0.00;;
16171;SDS011;8192;53.596;10.166;2023-04-15T09:47:56;0.00;;;0.00;;
16171;SDS011;8192;53.596;10.166;2023-04-15T09:50:24;0.00;;;0.00;;
16171;SDS011;8192;53.596;10.166;2023-04-15T09:52:54;0.00;;;0.00;;
16171;SDS011;8192;53.596;10.166;2023-04-15T09:55:21;0.00;;;0.00;;
16171;SDS011;8192;53.596;10.166;2023-04-15T09:57:48;0.00;;;0.00;;
16171;SDS011;8192;53.596;10.166;2023-04-15T10:00:16;0.00;;;0.00;;
16171;SDS011;8192;53.596;10.166;2023-04-15T10:05:15;0.00;;;0.00;;
16171;SDS011;8192;53.596;10.166;2023-04-15T10:07:43;0.00;;;0.00;;
16171;SDS011;8192;53.596;10.166;2023-04-15T10:10:11;0.00;;;0.00;;
16171;SDS011;8192;53.596;10.166;2023-04-15T10:12:39;0.00;;;0.00;;
16171;SDS011;8192;53.596;10.166;2023-04-15T10:15:08;0.00;;;0.00;;
16171;SDS011;8192;53.596;10.166;2023-04-15T10:17:41;0.00;;;0.00;;
16171;SDS011;8192;53.596;10.166;2023-04-15T10:20:12;0.00;;;0.00;;
16171;SDS011;8192;53.596;10.166;2023-04-15T10:22:40;0.00;;;0.00;;
16171;SDS011;8192;53.596;10.166;2023-04-15T10:25:09;0.00;;;0.00;;
16171;SDS011;8192;53.596;10.166;2023-04-15T10:27:38;0.00;;;0.00;;
16171;SDS011;8192;53.596;10.166;2023-04-15T10:30:06;0.00;;;0.00;;
16171;SDS011;8192;53.596;10.166;2023-04-15T10:32:34;0.10;;;0.10;;
16171;SDS011;8192;53.596;10.166;2023-04-15T10:35:01;0.10;;;0.10;;
16171;SDS011;8192;53.596;10.166;2023-04-15T10:37:34;0.00;;;0.00;;
16171;SDS011;8192;53.596;10.166;2023-04-15T10:42:52;0.10;;;0.10;;
16171;SDS011;8192;53.596;10.166;2023-04-15T10:45:20;0.00;;;0.00;;
16171;SDS011;8192;53.596;10.166;2023-04-15T10:47:50;0.10;;;0.10;;
16171;SDS011;8192;53.596;10.166;2023-04-15T10:50:20;0.10;;;0.10;;
16171;SDS011;8192;53.596;10.166;2023-04-15T10:52:50;0.03;;;0.03;;
16171;SDS011;8192;53.596;10.166;2023-04-15T10:55:19;0.10;;;0.10;;
16171;SDS011;8192;53.596;10.166;2023-04-15T10:57:50;0.10;;;0.10;;
16171;SDS011;8192;53.596;10.166;2023-04-15T11:00:18;0.10;;;0.10;;
16171;SDS011;8192;53.596;10.166;2023-04-15T11:02:51;0.10;;;0.10;;
16171;SDS011;8192;53.596;10.166;2023-04-15T11:05:20;0.10;;;0.10;;
16171;SDS011;8192;53.596;10.166;2023-04-15T11:08:01;0.10;;;0.10;;
16171;SDS011;8192;53.596;10.166;2023-04-15T11:13:30;0.10;;;0.10;;
16171;SDS011;8192;53.596;10.166;2023-04-15T11:15:58;0.10;;;0.10;;
16171;SDS011;8192;53.596;10.166;2023-04-15T11:18:27;0.10;;;0.10;;
16171;SDS011;8192;53.596;10.166;2023-04-15T11:20:59;0.00;;;0.00;;
16171;SDS011;8192;53.596;10.166;2023-04-15T11:23:33;0.10;;;0.10;;
16171;SDS011;8192;53.596;10.166;2023-04-15T11:26:03;0.10;;;0.10;;
16171;SDS011;8192;53.596;10.166;2023-04-15T11:28:33;0.10;;;0.10;;
16171;SDS011;8192;53.596;10.166;2023-04-15T11:31:07;0.10;;;0.10;;
16171;SDS011;8192;53.596;10.166;2023-04-15T11:33:35;0.10;;;0.10;;
16171;SDS011;8192;53.596;10.166;2023-04-15T11:36:03;16.93;;;6.03;;
16171;SDS011;8192;53.596;10.166;2023-04-15T11:38:30;5.13;;;2.83;;
16171;SDS011;8192;53.596;10.166;2023-04-15T11:41:02;4.27;;;2.37;;
16171;SDS011;8192;53.596;10.166;2023-04-15T11:43:30;2.50;;;1.13;;
16171;SDS011;8192;53.596;10.166;2023-04-15T11:45:59;10.20;;;3.13;;
16171;SDS011;8192;53.596;10.166;2023-04-15T11:48:28;2.43;;;2.20;;
16171;SDS011;8192;53.596;10.166;2023-04-15T11:50:57;2.70;;;1.10;;
16171;SDS011;8192;53.596;10.166;2023-04-15T11:53:36;4.33;;;2.43;;
16171;SDS011;8192;53.596;10.166;2023-04-15T11:56:05;3.37;;;2.83;;
16171;SDS011;8192;53.596;10.166;2023-04-15T11:58:35;1.53;;;0.70;;
16171;SDS011;8192;53.596;10.166;2023-04-15T12:04:25;10.57;;;4.70;;
16171;SDS011;8192;53.596;10.166;2023-04-15T12:06:52;4.63;;;1.87;;
16171;SDS011;8192;53.596;10.166;2023-04-15T12:12:42;3.73;;;2.07;;
16171;SDS011;8192;53.596;10.166;2023-04-15T12:15:14;4.77;;;4.33;;
16171;SDS011;8192;53.596;10.166;2023-04-15T12:17:42;4.53;;;2.37;;
16171;SDS011;8192;53.596;10.166;2023-04-15T12:20:09;2.23;;;1.53;;
16171;SDS011;8192;53.596;10.166;2023-04-15T12:25:59;6.10;;;2.73;;
16171;SDS011;8192;53.596;10.166;2023-04-15T12:31:55;7.97;;;3.17;;
16171;SDS011;8192;53.596;10.166;2023-04-15T12:34:27;3.13;;;1.87;;
16171;SDS011;8192;53.596;10.166;2023-04-15T12:36:55;0.53;;;0.20;;
16171;SDS011;8192;53.596;10.166;2023-04-15T12:42:45;1.83;;;0.73;;
16171;SDS011;8192;53.596;10.166;2023-04-15T12:48:36;8.40;;;3.80;;
16171;SDS011;8192;53.596;10.166;2023-04-15T12:51:03;4.57;;;2.20;;
16171;SDS011;8192;53.596;10.166;2023-04-15T12:53:30;5.73;;;2.57;;
16171;SDS011;8192;53.596;10.166;2023-04-15T12:55:57;5.60;;;3.43;;
16171;SDS011;8192;53.596;10.166;2023-04-15T12:58:25;4.90;;;2.23;;
16171;SDS011;8192;53.596;10.166;2023-04-15T13:00:53;12.23;;;2.17;;
16171;SDS011;8192;53.596;10.166;2023-04-15T13:03:21;3.17;;;1.63;;
16171;SDS011;8192;53.596;10.166;2023-04-15T13:05:49;7.70;;;3.50;;
16171;SDS011;8192;53.596;10.166;2023-04-15T13:08:17;6.57;;;3.00;;
16171;SDS011;8192;53.596;10.166;2023-04-15T13:10:44;4.47;;;2.70;;
16171;SDS011;8192;53.596;10.166;2023-04-15T13:13:11;7.37;;;4.10;;
16171;SDS011;8192;53.596;10.166;2023-04-15T13:15:38;3.03;;;1.50;;
16171;SDS011;8192;53.596;10.166;2023-04-15T13:18:05;5.77;;;3.47;;
16171;SDS011;8192;53.596;10.166;2023-04-15T13:20:33;1.30;;;1.07;;
16171;SDS011;8192;53.596;10.166;2023-04-15T13:23:02;5.93;;;2.60;;
16171;SDS011;8192;53.596;10.166;2023-04-15T13:25:29;4.50;;;2.53;;
16171;SDS011;8192;53.596;10.166;2023-04-15T13:27:56;11.20;;;4.80;;
16171;SDS011;8192;53.596;10.166;2023-04-15T13:30:23;2.73;;;1.23;;
16171;SDS011;8192;53.596;10.166;2023-04-15T13:32:50;4.63;;;2.77;;
16171;SDS011;8192;53.596;10.166;2023-04-15T13:35:19;2.37;;;2.00;;
16171;SDS011;8192;53.596;10.166;2023-04-15T13:37:46;2.00;;;1.13;;
16171;SDS011;8192;53.596;10.166;2023-04-15T13:40:14;12.57;;;6.70;;
16171;SDS011;8192;53.596;10.166;2023-04-15T13:42:41;2.43;;;1.57;;
16171;SDS011;8192;53.596;10.166;2023-04-15T13:45:08;14.93;;;4.87;;
16171;SDS011;8192;53.596;10.166;2023-04-15T13:47:35;6.40;;;3.57;;
16171;SDS011;8192;53.596;10.166;2023-04-15T13:50:02;5.93;;;3.00;;
16171;SDS011;8192;53.596;10.166;2023-04-15T13:52:30;3.83;;;2.20;;
16171;SDS011;8192;53.596;10.166;2023-04-15T13:55:00;8.43;;;3.70;;
16171;SDS011;8192;53.596;10.166;2023-04-15T13:57:33;0.77;;;0.77;;
16171;SDS011;8192;53.596;10.166;2023-04-15T14:00:00;11.67;;;4.90;;
16171;SDS011;8192;53.596;10.166;2023-04-15T14:02:28;3.37;;;2.00;;
16171;SDS011;8192;53.596;10.166;2023-04-15T14:04:58;2.97;;;1.83;;
16171;SDS011;8192;53.596;10.166;2023-04-15T14:07:27;6.60;;;3.40;;
16171;SDS011;8192;53.596;10.166;2023-04-15T14:09:58;7.07;;;3.27;;
16171;SDS011;8192;53.596;10.166;2023-04-15T14:12:28;3.80;;;1.30;;
16171;SDS011;8192;53.596;10.166;2023-04-15T14:14:57;2.73;;;1.27;;
16171;SDS011;8192;53.596;10.166;2023-04-15T14:17:24;3.90;;;2.43;;
16171;SDS011;8192;53.596;10.166;2023-04-15T14:19:51;2.47;;;0.40;;
16171;SDS011;8192;53.596;10.166;2023-04-15T14:22:19;10.30;;;3.50;;
16171;SDS011;8192;53.596;10.166;2023-04-15T14:24:47;4.00;;;1.90;;
16171;SDS011;8192;53.596;10.166;2023-04-15T14:27:17;6.20;;;3.20;;
16171;SDS011;8192;53.596;10.166;2023-04-15T14:29:44;2.63;;;1.47;;
16171;SDS011;8192;53.596;10.166;2023-04-15T14:32:13;4.10;;;2.97;;
16171;SDS011;8192;53.596;10.166;2023-04-15T14:34:43;4.03;;;2.13;;
16171;SDS011;8192;53.596;10.166;2023-04-15T14:37:10;3.60;;;2.33;;
16171;SDS011;8192;53.596;10.166;2023-04-15T14:39:37;6.03;;;2.73;;
16171;SDS011;8192;53.596;10.166;2023-04-15T14:42:05;5.07;;;2.53;;
16171;SDS011;8192;53.596;10.166;2023-04-15T14:44:33;5.80;;;3.47;;
16171;SDS011;8192;53.596;10.166;2023-04-15T14:47:00;1.70;;;1.10;;
16171;SDS011;8192;53.596;10.166;2023-04-15T14:49:29;3.47;;;2.33;;
16171;SDS011;8192;53.596;10.166;2023-04-15T14:51:57;8.17;;;2.97;;
16171;SDS011;8192;53.596;10.166;2023-04-15T14:54:24;3.67;;;1.60;;
16171;SDS011;8192;53.596;10.166;2023-04-15T14:56:51;2.07;;;1.40;;
16171;SDS011;8192;53.596;10.166;2023-04-15T14:59:18;8.97;;;2.67;;
16171;SDS011;8192;53.596;10.166;2023-04-15T15:01:45;5.80;;;2.10;;
16171;SDS011;8192;53.596;10.166;2023-04-15T15:04:13;3.17;;;1.47;;
16171;SDS011;8192;53.596;10.166;2023-04-15T15:06:43;3.50;;;2.23;;
16171;SDS011;8192;53.596;10.166;2023-04-15T15:09:11;8.93;;;3.60;;
16171;SDS011;8192;53.596;10.166;2023-04-15T15:11:39;9.93;;;4.17;;
16171;SDS011;8192;53.596;10.166;2023-04-15T15:14:10;1.10;;;0.80;;
16171;SDS011;8192;53.596;10.166;2023-04-15T15:16:39;4.63;;;2.43;;
16171;SDS011;8192;53.596;10.166;2023-04-15T15:19:06;5.27;;;3.23;;
16171;SDS011;8192;53.596;10.166;2023-04-15T15:21:34;5.33;;;2.13;;
16171;SDS011;8192;53.596;10.166;2023-04-15T15:24:04;3.00;;;1.40;;
16171;SDS011;8192;53.596;10.166;2023-04-15T15:26:31;5.90;;;3.53;;
16171;SDS011;8192;53.596;10.166;2023-04-15T15:28:58;6.73;;;3.47;;
16171;SDS011;8192;53.596;10.166;2023-04-15T15:31:25;2.93;;;2.00;;
16171;SDS011;8192;53.596;10.166;2023-04-15T15:33:53;5.37;;;2.73;;
16171;SDS011;8192;53.596;10.166;2023-04-15T15:36:21;1.93;;;1.47;;
16171;SDS011;8192;53.596;10.166;2023-04-15T15:39:02;3.13;;;1.30;;
16171;SDS011;8192;53.596;10.166;2023-04-15T15:41:30;3.37;;;2.00;;
16171;SDS011;8192;53.596;10.166;2023-04-15T15:43:57;3.50;;;1.40;;
16171;SDS011;8192;53.596;10.166;2023-04-15T15:46:25;0.90;;;0.87;;
16171;SDS011;8192;53.596;10.166;2023-04-15T15:48:55;8.20;;;4.90;;
16171;SDS011;8192;53.596;10.166;2023-04-15T15:51:22;7.33;;;2.93;;
16171;SDS011;8192;53.596;10.166;2023-04-15T15:53:51;2.53;;;1.70;;
16171;SDS011;8192;53.596;10.166;2023-04-15T15:59:11;11.30;;;2.70;;
16171;SDS011;8192;53.596;10.166;2023-04-15T16:01:39;7.17;;;3.57;;
16171;SDS011;8192;53.596;10.166;2023-04-15T16:04:06;6.03;;;2.93;;
16171;SDS011;8192;53.596;10.166;2023-04-15T16:06:34;4.73;;;2.93;;
16171;SDS011;8192;53.596;10.166;2023-04-15T16:09:01;6.13;;;2.30;;
16171;SDS011;8192;53.596;10.166;2023-04-15T16:14:04;9.57;;;4.53;;
16171;SDS011;8192;53.596;10.166;2023-04-15T16:16:32;7.07;;;4.17;;
16171;SDS011;8192;53.596;10.166;2023-04-15T16:18:59;6.23;;;2.00;;
16171;SDS011;8192;53.596;10.166;2023-04-15T16:21:26;7.33;;;3.77;;
16171;SDS011;8192;53.596;10.166;2023-04-15T16:24:03;0.97;;;0.73;;
16171;SDS011;8192;53.596;10.166;2023-04-15T16:26:31;5.13;;;2.53;;
16171;SDS011;8192;53.596;10.166;2023-04-15T16:35:17;2.57;;;2.00;;
16171;SDS011;8192;53.596;10.166;2023-04-15T16:37:44;4.37;;;2.10;;
16171;SDS011;8192;53.596;10.166;2023-04-15T16:40:12;3.93;;;2.83;;
16171;SDS011;8192;53.596;10.166;2023-04-15T16:42:40;5.90;;;3.23;;
16171;SDS011;8192;53.596;10.166;2023-04-15T16:45:08;4.13;;;2.40;;
16171;SDS011;8192;53.596;10.166;2023-04-15T16:47:37;9.53;;;4.50;;
16171;SDS011;8192;53.596;10.166;2023-04-15T16:50:16;13.10;;;7.17;;
16171;SDS011;8192;53.596;10.166;2023-04-15T16:52:44;1.53;;;1.17;;
16171;SDS011;8192;53.596;10.166;2023-04-15T16:55:11;11.00;;;5.30;;
16171;SDS011;8192;53.596;10.166;2023-04-15T16:57:38;6.10;;;2.10;;
16171;SDS011;8192;53.596;10.166;2023-04-15T17:00:06;2.63;;;2.20;;
16171;SDS011;8192;53.596;10.166;2023-04-15T17:02:34;7.40;;;4.07;;